sensor_id;sensor_type;location;lat;lon;timestamp;temperature;humidity
11736;DHT22;5924;51.398;7.088;2024-03-02T00:02:06;7.30;99.90
11736;DHT22;5924;51.398;7.088;2024-03-02T00:04:32;7.30;99.90
11736;DHT22;5924;51.398;7.088;2024-03-02T00:06:58;7.40;99.90
11736;DHT22;5924;51.398;7.088;2024-03-02T00:09:24;7.40;99.90
11736;DHT22;5924;51.398;7.088;2024-03-02T00:11:50;8.00;99.90
11736;DHT22;5924;51.398;7.088;2024-03-02T00:14:16;7.50;99.90
11736;DHT22;5924;51.398;7.088;2024-03-02T00:16:42;7.50;99.90
11736;DHT22;5924;51.398;7.088;2024-03-02T00:19:09;7.60;99.90
11736;DHT22;5924;51.398;7.088;2024-03-02T00:21:35;7.60;99.90
11736;DHT22;5924;51.398;7.088;2024-03-02T00:26:47;7.60;99.90
11736;DHT22;5924;51.398;7.088;2024-03-02T00:29:16;7.60;99.90
11736;DHT22;5924;51.398;7.088;2024-03-02T00:31:43;7.50;99.90
11736;DHT22;5924;51.398;7.088;2024-03-02T00:34:11;7.50;99.90
11736;DHT22;5924;51.398;7.088;2024-03-02T00:36:38;7.50;99.90
11736;DHT22;5924;51.398;7.088;2024-03-02T00:39:03;7.50;99.90
11736;DHT22;5924;51.398;7.088;2024-03-02T00:41:33;7.50;99.90
11736;DHT22;5924;51.398;7.088;2024-03-02T00:44:20;7.70;99.90
11736;DHT22;5924;51.398;7.088;2024-03-02T00:46:50;7.70;99.90
11736;DHT22;5924;51.398;7.088;2024-03-02T00:49:23;7.80;99.90
11736;DHT22;5924;51.398;7.088;2024-03-02T00:51:51;7.70;99.90
11736;DHT22;5924;51.398;7.088;2024-03-02T00:54:25;7.80;99.90
11736;DHT22;5924;51.398;7.088;2024-03-02T00:56:55;7.90;99.90
11736;DHT22;5924;51.398;7.088;2024-03-02T00:59:22;7.90;99.90
11736;DHT22;5924;51.398;7.088;2024-03-02T01:01:48;8.00;99.90
11736;DHT22;5924;51.398;7.088;2024-03-02T01:04:15;7.90;99.90
11736;DHT22;5924;51.398;7.088;2024-03-02T01:06:42;8.00;99.90
11736;DHT22;5924;51.398;7.088;2024-03-02T01:09:07;8.10;99.90
11736;DHT22;5924;51.398;7.088;2024-03-02T01:11:33;8.10;99.90
11736;DHT22;5924;51.398;7.088;2024-03-02T01:13:59;8.10;99.90
11736;DHT22;5924;51.398;7.088;2024-03-02T01:16:24;9.10;99.90
11736;DHT22;5924;51.398;7.088;2024-03-02T01:18:50;8.20;99.90
11736;DHT22;5924;51.398;7.088;2024-03-02T01:21:16;9.80;99.90
11736;DHT22;5924;51.398;7.088;2024-03-02T01:23:42;8.30;99.90
11736;DHT22;5924;51.398;7.088;2024-03-02T01:26:08;8.40;99.90
11736;DHT22;5924;51.398;7.088;2024-03-02T01:28:34;8.40;99.90
11736;DHT22;5924;51.398;7.088;2024-03-02T01:30:59;8.40;99.90
11736;DHT22;5924;51.398;7.088;2024-03-02T01:33:35;8.60;99.90
11736;DHT22;5924;51.398;7.088;2024-03-02T01:36:01;8.40;99.90
11736;DHT22;5924;51.398;7.088;2024-03-02T01:38:27;8.40;99.90
11736;DHT22;5924;51.398;7.088;2024-03-02T01:40:54;8.40;99.90
11736;DHT22;5924;51.398;7.088;2024-03-02T01:43:22;8.40;99.90
11736;DHT22;5924;51.398;7.088;2024-03-02T01:45:47;8.30;99.90
11736;DHT22;5924;51.398;7.088;2024-03-02T01:48:13;8.30;99.90
11736;DHT22;5924;51.398;7.088;2024-03-02T01:50:39;8.20;99.90
11736;DHT22;5924;51.398;7.088;2024-03-02T01:53:04;8.10;99.90
11736;DHT22;5924;51.398;7.088;2024-03-02T01:55:30;8.00;99.90
11736;DHT22;5924;51.398;7.088;2024-03-02T01:57:56;7.90;99.90
11736;DHT22;5924;51.398;7.088;2024-03-02T02:00:23;7.80;99.90
11736;DHT22;5924;51.398;7.088;2024-03-02T02:02:52;7.70;99.90
11736;DHT22;5924;51.398;7.088;2024-03-02T02:05:18;7.70;99.90
11736;DHT22;5924;51.398;7.088;2024-03-02T02:07:44;7.60;99.90
11736;DHT22;5924;51.398;7.088;2024-03-02T02:10:10;7.60;99.90
11736;DHT22;5924;51.398;7.088;2024-03-02T02:12:36;7.50;99.90
11736;DHT22;5924;51.398;7.088;2024-03-02T02:15:03;7.50;99.90
11736;DHT22;5924;51.398;7.088;2024-03-02T02:17:29;7.50;99.90
11736;DHT22;5924;51.398;7.088;2024-03-02T02:19:54;7.60;99.90
11736;DHT22;5924;51.398;7.088;2024-03-02T02:22:20;7.60;99.90
11736;DHT22;5924;51.398;7.088;2024-03-02T02:24:46;7.70;99.90
11736;DHT22;5924;51.398;7.088;2024-03-02T02:27:11;7.80;99.90
11736;DHT22;5924;51.398;7.088;2024-03-02T02:29:40;7.80;99.90
11736;DHT22;5924;51.398;7.088;2024-03-02T02:32:06;7.90;99.90
11736;DHT22;5924;51.398;7.088;2024-03-02T02:34:32;8.00;99.90
11736;DHT22;5924;51.398;7.088;2024-03-02T02:36:58;8.10;99.90
11736;DHT22;5924;51.398;7.088;2024-03-02T02:39:24;8.10;99.90
11736;DHT22;5924;51.398;7.088;2024-03-02T02:41:50;8.10;99.90
11736;DHT22;5924;51.398;7.088;2024-03-02T02:44:16;8.20;99.90
11736;DHT22;5924;51.398;7.088;2024-03-02T02:46:42;8.10;99.90
11736;DHT22;5924;51.398;7.088;2024-03-02T02:49:07;8.20;99.90
11736;DHT22;5924;51.398;7.088;2024-03-02T02:51:33;8.20;99.90
11736;DHT22;5924;51.398;7.088;2024-03-02T02:53:59;8.20;99.90
11736;DHT22;5924;51.398;7.088;2024-03-02T02:56:25;8.20;99.90
11736;DHT22;5924;51.398;7.088;2024-03-02T02:58:51;8.20;99.90
11736;DHT22;5924;51.398;7.088;2024-03-02T03:01:16;8.30;99.90
11736;DHT22;5924;51.398;7.088;2024-03-02T03:03:45;8.30;99.90
11736;DHT22;5924;51.398;7.088;2024-03-02T03:06:11;8.30;99.90
11736;DHT22;5924;51.398;7.088;2024-03-02T03:08:37;8.30;99.90
11736;DHT22;5924;51.398;7.088;2024-03-02T03:11:03;8.30;99.90
11736;DHT22;5924;51.398;7.088;2024-03-02T03:13:29;8.30;99.90
11736;DHT22;5924;51.398;7.088;2024-03-02T03:15:55;8.30;99.90
11736;DHT22;5924;51.398;7.088;2024-03-02T03:18:20;8.30;99.90
11736;DHT22;5924;51.398;7.088;2024-03-02T03:20:46;8.40;99.90
11736;DHT22;5924;51.398;7.088;2024-03-02T03:23:12;8.40;99.90
11736;DHT22;5924;51.398;7.088;2024-03-02T03:25:41;8.40;99.90
11736;DHT22;5924;51.398;7.088;2024-03-02T03:28:07;8.40;99.90
11736;DHT22;5924;51.398;7.088;2024-03-02T03:30:38;8.40;99.90
11736;DHT22;5924;51.398;7.088;2024-03-02T03:33:04;8.40;99.90
11736;DHT22;5924;51.398;7.088;2024-03-02T03:35:33;8.40;99.90
11736;DHT22;5924;51.398;7.088;2024-03-02T03:38:00;8.40;99.90
11736;DHT22;5924;51.398;7.088;2024-03-02T03:40:26;8.40;99.90
11736;DHT22;5924;51.398;7.088;2024-03-02T03:42:51;8.40;99.90
11736;DHT22;5924;51.398;7.088;2024-03-02T03:45:17;8.40;99.90
11736;DHT22;5924;51.398;7.088;2024-03-02T03:47:43;8.40;99.90
11736;DHT22;5924;51.398;7.088;2024-03-02T03:50:09;8.40;99.90
11736;DHT22;5924;51.398;7.088;2024-03-02T03:52:34;8.40;99.90
11736;DHT22;5924;51.398;7.088;2024-03-02T03:55:00;8.40;99.90
11736;DHT22;5924;51.398;7.088;2024-03-02T03:57:27;8.40;99.90
11736;DHT22;5924;51.398;7.088;2024-03-02T03:59:53;8.40;99.90
11736;DHT22;5924;51.398;7.088;2024-03-02T04:02:19;10.50;99.90
11736;DHT22;5924;51.398;7.088;2024-03-02T04:04:45;8.30;99.90
11736;DHT22;5924;51.398;7.088;2024-03-02T04:07:10;8.30;99.90
11736;DHT22;5924;51.398;7.088;2024-03-02T04:09:36;8.20;99.90
11736;DHT22;5924;51.398;7.088;2024-03-02T04:12:01;8.20;99.90
11736;DHT22;5924;51.398;7.088;2024-03-02T04:14:27;8.20;99.90
11736;DHT22;5924;51.398;7.088;2024-03-02T04:16:53;8.10;99.90
11736;DHT22;5924;51.398;7.088;2024-03-02T04:19:18;8.00;99.90
11736;DHT22;5924;51.398;7.088;2024-03-02T04:21:44;7.90;99.90
11736;DHT22;5924;51.398;7.088;2024-03-02T04:24:10;7.90;99.90
11736;DHT22;5924;51.398;7.088;2024-03-02T04:26:35;7.90;99.90
11736;DHT22;5924;51.398;7.088;2024-03-02T04:29:01;7.90;99.90
11736;DHT22;5924;51.398;7.088;2024-03-02T04:31:27;7.80;99.90
11736;DHT22;5924;51.398;7.088;2024-03-02T04:33:53;7.80;99.90
11736;DHT22;5924;51.398;7.088;2024-03-02T04:36:19;7.70;99.90
11736;DHT22;5924;51.398;7.088;2024-03-02T04:38:45;7.70;99.90
11736;DHT22;5924;51.398;7.088;2024-03-02T04:41:10;7.70;99.90
11736;DHT22;5924;51.398;7.088;2024-03-02T04:43:36;7.60;99.90
11736;DHT22;5924;51.398;7.088;2024-03-02T04:46:02;7.40;99.90
11736;DHT22;5924;51.398;7.088;2024-03-02T04:48:28;7.40;99.90
11736;DHT22;5924;51.398;7.088;2024-03-02T04:50:53;7.30;99.90
11736;DHT22;5924;51.398;7.088;2024-03-02T04:53:19;7.20;99.90
11736;DHT22;5924;51.398;7.088;2024-03-02T04:55:45;7.10;99.90
11736;DHT22;5924;51.398;7.088;2024-03-02T04:58:19;7.10;99.90
11736;DHT22;5924;51.398;7.088;2024-03-02T05:00:45;7.00;99.90
11736;DHT22;5924;51.398;7.088;2024-03-02T05:03:12;7.00;99.90
11736;DHT22;5924;51.398;7.088;2024-03-02T05:05:38;7.00;99.90
11736;DHT22;5924;51.398;7.088;2024-03-02T05:08:04;8.60;99.90
11736;DHT22;5924;51.398;7.088;2024-03-02T05:10:30;7.00;99.90
11736;DHT22;5924;51.398;7.088;2024-03-02T05:12:55;6.90;99.90
11736;DHT22;5924;51.398;7.088;2024-03-02T05:15:25;6.90;99.90
11736;DHT22;5924;51.398;7.088;2024-03-02T05:17:51;6.90;99.90
11736;DHT22;5924;51.398;7.088;2024-03-02T05:20:17;7.00;99.90
11736;DHT22;5924;51.398;7.088;2024-03-02T05:22:42;7.00;99.90
11736;DHT22;5924;51.398;7.088;2024-03-02T05:25:08;7.00;99.90
11736;DHT22;5924;51.398;7.088;2024-03-02T05:27:37;7.00;99.90
11736;DHT22;5924;51.398;7.088;2024-03-02T05:30:03;7.00;99.90
11736;DHT22;5924;51.398;7.088;2024-03-02T05:32:29;6.90;99.90
11736;DHT22;5924;51.398;7.088;2024-03-02T05:34:54;6.90;99.90
11736;DHT22;5924;51.398;7.088;2024-03-02T05:37:20;6.80;99.90
11736;DHT22;5924;51.398;7.088;2024-03-02T05:39:46;7.70;99.90
11736;DHT22;5924;51.398;7.088;2024-03-02T05:42:11;6.90;99.90
11736;DHT22;5924;51.398;7.088;2024-03-02T05:44:37;6.90;99.90
11736;DHT22;5924;51.398;7.088;2024-03-02T05:47:03;6.90;99.90
11736;DHT22;5924;51.398;7.088;2024-03-02T05:49:29;6.80;99.90
11736;DHT22;5924;51.398;7.088;2024-03-02T05:51:55;6.70;99.90
11736;DHT22;5924;51.398;7.088;2024-03-02T05:54:20;6.60;99.90
11736;DHT22;5924;51.398;7.088;2024-03-02T05:56:46;6.60;99.90
11736;DHT22;5924;51.398;7.088;2024-03-02T05:59:12;6.50;99.90
11736;DHT22;5924;51.398;7.088;2024-03-02T06:01:42;6.50;99.90
11736;DHT22;5924;51.398;7.088;2024-03-02T06:04:11;6.40;99.90
11736;DHT22;5924;51.398;7.088;2024-03-02T06:06:37;6.40;99.90
11736;DHT22;5924;51.398;7.088;2024-03-02T06:09:04;6.30;99.90
11736;DHT22;5924;51.398;7.088;2024-03-02T06:11:40;6.20;99.90
11736;DHT22;5924;51.398;7.088;2024-03-02T06:14:07;6.10;99.90
11736;DHT22;5924;51.398;7.088;2024-03-02T06:16:33;6.10;99.90
11736;DHT22;5924;51.398;7.088;2024-03-02T06:18:59;6.20;99.90
11736;DHT22;5924;51.398;7.088;2024-03-02T06:21:25;6.20;99.90
11736;DHT22;5924;51.398;7.088;2024-03-02T06:23:51;6.10;99.90
11736;DHT22;5924;51.398;7.088;2024-03-02T06:26:18;6.20;99.90
11736;DHT22;5924;51.398;7.088;2024-03-02T06:28:44;6.10;99.90
11736;DHT22;5924;51.398;7.088;2024-03-02T06:31:10;6.10;99.90
11736;DHT22;5924;51.398;7.088;2024-03-02T06:33:36;6.00;99.90
11736;DHT22;5924;51.398;7.088;2024-03-02T06:36:02;5.90;99.90
11736;DHT22;5924;51.398;7.088;2024-03-02T06:38:27;5.80;99.90
11736;DHT22;5924;51.398;7.088;2024-03-02T06:40:53;5.90;99.90
11736;DHT22;5924;51.398;7.088;2024-03-02T06:43:19;5.90;99.90
11736;DHT22;5924;51.398;7.088;2024-03-02T06:45:51;5.90;99.90
11736;DHT22;5924;51.398;7.088;2024-03-02T06:48:17;5.90;99.90
11736;DHT22;5924;51.398;7.088;2024-03-02T06:50:49;6.00;99.90
11736;DHT22;5924;51.398;7.088;2024-03-02T06:53:15;6.00;99.90
11736;DHT22;5924;51.398;7.088;2024-03-02T06:55:45;6.00;99.90
11736;DHT22;5924;51.398;7.088;2024-03-02T06:58:14;6.00;99.90
11736;DHT22;5924;51.398;7.088;2024-03-02T07:00:42;6.10;99.90
11736;DHT22;5924;51.398;7.088;2024-03-02T07:03:09;6.00;99.90
11736;DHT22;5924;51.398;7.088;2024-03-02T07:05:35;6.00;99.90
11736;DHT22;5924;51.398;7.088;2024-03-02T07:08:01;6.10;99.90
11736;DHT22;5924;51.398;7.088;2024-03-02T07:10:28;6.20;99.90
11736;DHT22;5924;51.398;7.088;2024-03-02T07:12:53;6.10;99.90
11736;DHT22;5924;51.398;7.088;2024-03-02T07:15:19;6.20;99.90
11736;DHT22;5924;51.398;7.088;2024-03-02T07:17:54;6.30;99.90
11736;DHT22;5924;51.398;7.088;2024-03-02T07:20:20;6.30;99.90
11736;DHT22;5924;51.398;7.088;2024-03-02T07:22:46;6.50;99.90
11736;DHT22;5924;51.398;7.088;2024-03-02T07:25:11;6.70;99.90
11736;DHT22;5924;51.398;7.088;2024-03-02T07:27:38;6.80;99.90
11736;DHT22;5924;51.398;7.088;2024-03-02T07:30:04;7.00;99.90
11736;DHT22;5924;51.398;7.088;2024-03-02T07:32:30;7.20;99.90
11736;DHT22;5924;51.398;7.088;2024-03-02T07:34:56;7.30;99.90
11736;DHT22;5924;51.398;7.088;2024-03-02T07:37:23;7.60;99.90
11736;DHT22;5924;51.398;7.088;2024-03-02T07:39:49;7.80;99.90
11736;DHT22;5924;51.398;7.088;2024-03-02T07:42:15;8.00;99.90
11736;DHT22;5924;51.398;7.088;2024-03-02T07:44:41;8.10;99.90
11736;DHT22;5924;51.398;7.088;2024-03-02T07:47:07;8.20;99.90
11736;DHT22;5924;51.398;7.088;2024-03-02T07:49:33;8.30;99.90
11736;DHT22;5924;51.398;7.088;2024-03-02T07:52:00;8.30;99.90
11736;DHT22;5924;51.398;7.088;2024-03-02T07:54:25;8.40;99.90
11736;DHT22;5924;51.398;7.088;2024-03-02T07:56:51;8.40;99.90
11736;DHT22;5924;51.398;7.088;2024-03-02T07:59:17;8.40;99.90
11736;DHT22;5924;51.398;7.088;2024-03-02T08:01:43;8.40;99.90
11736;DHT22;5924;51.398;7.088;2024-03-02T08:04:09;8.40;99.90
11736;DHT22;5924;51.398;7.088;2024-03-02T08:06:34;8.40;99.90
11736;DHT22;5924;51.398;7.088;2024-03-02T08:09:00;8.30;99.90
11736;DHT22;5924;51.398;7.088;2024-03-02T08:11:27;8.30;99.90
11736;DHT22;5924;51.398;7.088;2024-03-02T08:13:52;8.30;99.90
11736;DHT22;5924;51.398;7.088;2024-03-02T08:16:21;8.30;99.90
11736;DHT22;5924;51.398;7.088;2024-03-02T08:18:48;8.40;99.90
11736;DHT22;5924;51.398;7.088;2024-03-02T08:21:14;8.50;99.90
11736;DHT22;5924;51.398;7.088;2024-03-02T08:23:41;8.60;99.90
11736;DHT22;5924;51.398;7.088;2024-03-02T08:26:08;8.60;99.90
11736;DHT22;5924;51.398;7.088;2024-03-02T08:28:34;8.60;99.90
11736;DHT22;5924;51.398;7.088;2024-03-02T08:31:00;8.60;99.90
11736;DHT22;5924;51.398;7.088;2024-03-02T08:33:25;8.70;99.90
11736;DHT22;5924;51.398;7.088;2024-03-02T08:35:51;8.80;99.90
11736;DHT22;5924;51.398;7.088;2024-03-02T08:38:17;8.90;99.90
11736;DHT22;5924;51.398;7.088;2024-03-02T08:40:44;9.00;99.90
11736;DHT22;5924;51.398;7.088;2024-03-02T08:43:09;9.10;99.90
11736;DHT22;5924;51.398;7.088;2024-03-02T08:45:35;9.20;99.90
11736;DHT22;5924;51.398;7.088;2024-03-02T08:48:01;9.30;99.90
11736;DHT22;5924;51.398;7.088;2024-03-02T08:50:27;9.40;99.90
11736;DHT22;5924;51.398;7.088;2024-03-02T08:52:52;9.50;99.90
11736;DHT22;5924;51.398;7.088;2024-03-02T08:55:18;9.50;99.90
11736;DHT22;5924;51.398;7.088;2024-03-02T08:57:43;9.60;99.90
11736;DHT22;5924;51.398;7.088;2024-03-02T09:00:10;9.70;99.90
11736;DHT22;5924;51.398;7.088;2024-03-02T09:02:36;9.80;99.90
11736;DHT22;5924;51.398;7.088;2024-03-02T09:05:02;9.60;99.90
11736;DHT22;5924;51.398;7.088;2024-03-02T09:07:28;9.80;99.90
11736;DHT22;5924;51.398;7.088;2024-03-02T09:09:53;9.90;99.90
11736;DHT22;5924;51.398;7.088;2024-03-02T09:12:19;9.90;99.90
11736;DHT22;5924;51.398;7.088;2024-03-02T09:14:46;10.00;99.90
11736;DHT22;5924;51.398;7.088;2024-03-02T09:17:12;10.00;99.90
11736;DHT22;5924;51.398;7.088;2024-03-02T09:19:39;10.10;99.90
11736;DHT22;5924;51.398;7.088;2024-03-02T09:22:05;10.10;99.90
11736;DHT22;5924;51.398;7.088;2024-03-02T09:24:31;10.10;99.90
11736;DHT22;5924;51.398;7.088;2024-03-02T09:26:58;10.20;99.90
11736;DHT22;5924;51.398;7.088;2024-03-02T09:29:24;10.40;99.90
11736;DHT22;5924;51.398;7.088;2024-03-02T09:31:50;10.50;99.90
11736;DHT22;5924;51.398;7.088;2024-03-02T09:34:16;10.50;99.90
11736;DHT22;5924;51.398;7.088;2024-03-02T09:36:42;10.60;99.90
11736;DHT22;5924;51.398;7.088;2024-03-02T09:39:08;10.70;99.90
11736;DHT22;5924;51.398;7.088;2024-03-02T09:41:37;9.00;99.90
11736;DHT22;5924;51.398;7.088;2024-03-02T09:44:05;10.80;99.90
11736;DHT22;5924;51.398;7.088;2024-03-02T09:46:31;10.90;99.90
11736;DHT22;5924;51.398;7.088;2024-03-02T09:48:57;11.00;99.90
11736;DHT22;5924;51.398;7.088;2024-03-02T09:51:23;11.10;99.90
11736;DHT22;5924;51.398;7.088;2024-03-02T09:53:49;11.20;99.90
11736;DHT22;5924;51.398;7.088;2024-03-02T09:56:15;11.20;99.90
11736;DHT22;5924;51.398;7.088;2024-03-02T09:58:41;11.30;99.90
11736;DHT22;5924;51.398;7.088;2024-03-02T10:01:07;11.30;99.90
11736;DHT22;5924;51.398;7.088;2024-03-02T10:03:36;11.30;99.90
11736;DHT22;5924;51.398;7.088;2024-03-02T10:06:25;11.40;99.90
11736;DHT22;5924;51.398;7.088;2024-03-02T10:08:51;11.50;99.90
11736;DHT22;5924;51.398;7.088;2024-03-02T10:11:34;11.60;99.90
11736;DHT22;5924;51.398;7.088;2024-03-02T10:14:08;11.70;99.90
11736;DHT22;5924;51.398;7.088;2024-03-02T10:16:38;11.80;99.90
11736;DHT22;5924;51.398;7.088;2024-03-02T10:19:22;11.40;99.90
11736;DHT22;5924;51.398;7.088;2024-03-02T10:21:51;11.90;99.90
11736;DHT22;5924;51.398;7.088;2024-03-02T10:24:18;11.90;99.90
11736;DHT22;5924;51.398;7.088;2024-03-02T10:26:45;12.10;99.90
11736;DHT22;5924;51.398;7.088;2024-03-02T10:29:11;12.20;99.90
11736;DHT22;5924;51.398;7.088;2024-03-02T10:31:38;12.30;99.90
11736;DHT22;5924;51.398;7.088;2024-03-02T10:34:05;13.80;99.90
11736;DHT22;5924;51.398;7.088;2024-03-02T10:36:31;12.60;99.90
11736;DHT22;5924;51.398;7.088;2024-03-02T10:38:57;12.70;99.90
11736;DHT22;5924;51.398;7.088;2024-03-02T10:41:26;12.70;99.90
11736;DHT22;5924;51.398;7.088;2024-03-02T10:43:56;12.70;99.90
11736;DHT22;5924;51.398;7.088;2024-03-02T10:46:32;12.70;99.90
11736;DHT22;5924;51.398;7.088;2024-03-02T10:48:59;12.60;99.90
11736;DHT22;5924;51.398;7.088;2024-03-02T10:51:26;12.70;99.90
11736;DHT22;5924;51.398;7.088;2024-03-02T10:53:54;12.70;99.90
11736;DHT22;5924;51.398;7.088;2024-03-02T10:56:53;12.90;99.90
11736;DHT22;5924;51.398;7.088;2024-03-02T10:59:36;12.90;99.90
11736;DHT22;5924;51.398;7.088;2024-03-02T11:02:05;12.90;99.90
11736;DHT22;5924;51.398;7.088;2024-03-02T11:04:34;13.00;99.90
11736;DHT22;5924;51.398;7.088;2024-03-02T11:07:09;13.10;99.90
11736;DHT22;5924;51.398;7.088;2024-03-02T11:09:39;13.20;99.90
11736;DHT22;5924;51.398;7.088;2024-03-02T11:15:18;13.50;99.90
11736;DHT22;5924;51.398;7.088;2024-03-02T11:17:47;15.40;99.90
11736;DHT22;5924;51.398;7.088;2024-03-02T11:20:13;13.60;99.90
11736;DHT22;5924;51.398;7.088;2024-03-02T11:22:40;13.60;99.90
11736;DHT22;5924;51.398;7.088;2024-03-02T11:25:23;13.70;99.90
11736;DHT22;5924;51.398;7.088;2024-03-02T11:35:28;13.70;99.90
11736;DHT22;5924;51.398;7.088;2024-03-02T11:37:56;13.80;99.90
11736;DHT22;5924;51.398;7.088;2024-03-02T11:40:27;13.90;99.90
11736;DHT22;5924;51.398;7.088;2024-03-02T11:42:53;14.00;99.90
11736;DHT22;5924;51.398;7.088;2024-03-02T11:45:23;14.00;99.90
11736;DHT22;5924;51.398;7.088;2024-03-02T11:47:54;14.00;99.90
11736;DHT22;5924;51.398;7.088;2024-03-02T11:50:30;14.00;99.90
11736;DHT22;5924;51.398;7.088;2024-03-02T11:52:56;14.00;99.90
11736;DHT22;5924;51.398;7.088;2024-03-02T11:55:23;14.10;99.90
11736;DHT22;5924;51.398;7.088;2024-03-02T11:57:52;14.10;99.90
11736;DHT22;5924;51.398;7.088;2024-03-02T12:00:19;14.20;99.90
11736;DHT22;5924;51.398;7.088;2024-03-02T12:02:46;14.20;99.90
11736;DHT22;5924;51.398;7.088;2024-03-02T12:05:16;14.70;99.90
11736;DHT22;5924;51.398;7.088;2024-03-02T12:07:43;14.20;99.90
11736;DHT22;5924;51.398;7.088;2024-03-02T12:10:08;14.20;99.90
11736;DHT22;5924;51.398;7.088;2024-03-02T12:12:34;14.10;99.90
11736;DHT22;5924;51.398;7.088;2024-03-02T12:15:01;14.20;99.90
11736;DHT22;5924;51.398;7.088;2024-03-02T12:17:29;14.10;99.90
11736;DHT22;5924;51.398;7.088;2024-03-02T12:19:54;14.00;99.90
11736;DHT22;5924;51.398;7.088;2024-03-02T12:22:21;14.00;99.90
11736;DHT22;5924;51.398;7.088;2024-03-02T12:24:47;14.00;99.90
11736;DHT22;5924;51.398;7.088;2024-03-02T12:27:14;14.10;99.90
11736;DHT22;5924;51.398;7.088;2024-03-02T12:29:40;14.20;99.90
11736;DHT22;5924;51.398;7.088;2024-03-02T12:32:06;14.30;99.90
11736;DHT22;5924;51.398;7.088;2024-03-02T12:34:32;14.40;99.90
11736;DHT22;5924;51.398;7.088;2024-03-02T12:36:58;14.60;99.90
11736;DHT22;5924;51.398;7.088;2024-03-02T12:39:24;14.80;99.90
11736;DHT22;5924;51.398;7.088;2024-03-02T12:41:50;14.90;99.90
11736;DHT22;5924;51.398;7.088;2024-03-02T12:44:17;15.10;99.90
11736;DHT22;5924;51.398;7.088;2024-03-02T12:46:43;15.20;99.90
11736;DHT22;5924;51.398;7.088;2024-03-02T12:49:14;15.10;99.90
11736;DHT22;5924;51.398;7.088;2024-03-02T12:51:43;16.10;99.90
11736;DHT22;5924;51.398;7.088;2024-03-02T12:54:12;15.20;99.90
11736;DHT22;5924;51.398;7.088;2024-03-02T12:56:38;15.30;99.90
11736;DHT22;5924;51.398;7.088;2024-03-02T12:59:04;15.30;99.90
11736;DHT22;5924;51.398;7.088;2024-03-02T13:01:31;15.30;99.90
11736;DHT22;5924;51.398;7.088;2024-03-02T13:03:58;15.50;99.90
11736;DHT22;5924;51.398;7.088;2024-03-02T13:06:29;15.60;99.90
11736;DHT22;5924;51.398;7.088;2024-03-02T13:08:55;15.80;99.90
11736;DHT22;5924;51.398;7.088;2024-03-02T13:11:22;15.90;99.90
11736;DHT22;5924;51.398;7.088;2024-03-02T13:13:49;15.70;99.90
11736;DHT22;5924;51.398;7.088;2024-03-02T13:16:15;14.50;99.90
11736;DHT22;5924;51.398;7.088;2024-03-02T13:18:41;15.40;99.90
11736;DHT22;5924;51.398;7.088;2024-03-02T13:21:08;15.20;99.90
11736;DHT22;5924;51.398;7.088;2024-03-02T13:23:34;15.20;99.90
11736;DHT22;5924;51.398;7.088;2024-03-02T13:26:00;15.20;99.90
11736;DHT22;5924;51.398;7.088;2024-03-02T13:28:26;15.20;99.90
11736;DHT22;5924;51.398;7.088;2024-03-02T13:30:51;15.00;99.90
11736;DHT22;5924;51.398;7.088;2024-03-02T13:33:18;14.90;99.90
11736;DHT22;5924;51.398;7.088;2024-03-02T13:35:51;14.70;99.90
11736;DHT22;5924;51.398;7.088;2024-03-02T13:38:20;14.60;99.90
11736;DHT22;5924;51.398;7.088;2024-03-02T13:40:49;14.50;99.90
11736;DHT22;5924;51.398;7.088;2024-03-02T13:43:17;14.40;99.90
11736;DHT22;5924;51.398;7.088;2024-03-02T13:45:43;14.40;99.90
11736;DHT22;5924;51.398;7.088;2024-03-02T13:48:09;14.30;99.90
11736;DHT22;5924;51.398;7.088;2024-03-02T13:50:35;14.40;99.90
11736;DHT22;5924;51.398;7.088;2024-03-02T13:53:00;14.40;99.90
11736;DHT22;5924;51.398;7.088;2024-03-02T13:55:26;14.40;99.90
11736;DHT22;5924;51.398;7.088;2024-03-02T13:57:52;14.50;99.90
11736;DHT22;5924;51.398;7.088;2024-03-02T14:00:18;14.70;99.90
11736;DHT22;5924;51.398;7.088;2024-03-02T14:02:45;14.80;99.90
11736;DHT22;5924;51.398;7.088;2024-03-02T14:05:11;15.00;99.90
11736;DHT22;5924;51.398;7.088;2024-03-02T14:07:38;15.20;99.90
11736;DHT22;5924;51.398;7.088;2024-03-02T14:10:04;15.50;99.90
11736;DHT22;5924;51.398;7.088;2024-03-02T14:12:30;15.60;99.90
11736;DHT22;5924;51.398;7.088;2024-03-02T14:14:56;15.50;99.90
11736;DHT22;5924;51.398;7.088;2024-03-02T14:17:26;15.40;99.90
11736;DHT22;5924;51.398;7.088;2024-03-02T14:19:52;15.20;99.90
11736;DHT22;5924;51.398;7.088;2024-03-02T14:22:19;15.00;99.90
11736;DHT22;5924;51.398;7.088;2024-03-02T14:24:45;14.90;99.90
11736;DHT22;5924;51.398;7.088;2024-03-02T14:27:11;14.80;99.90
11736;DHT22;5924;51.398;7.088;2024-03-02T14:29:42;14.80;99.90
11736;DHT22;5924;51.398;7.088;2024-03-02T14:32:08;14.70;99.90
11736;DHT22;5924;51.398;7.088;2024-03-02T14:34:34;14.70;99.90
11736;DHT22;5924;51.398;7.088;2024-03-02T14:37:00;14.70;99.90
11736;DHT22;5924;51.398;7.088;2024-03-02T14:39:26;14.90;99.90
11736;DHT22;5924;51.398;7.088;2024-03-02T14:41:52;15.10;99.90
11736;DHT22;5924;51.398;7.088;2024-03-02T14:44:18;15.30;99.90
11736;DHT22;5924;51.398;7.088;2024-03-02T14:46:46;15.30;99.90
11736;DHT22;5924;51.398;7.088;2024-03-02T14:49:13;15.50;99.90
11736;DHT22;5924;51.398;7.088;2024-03-02T14:51:39;15.50;99.90
11736;DHT22;5924;51.398;7.088;2024-03-02T14:54:04;15.60;99.90
11736;DHT22;5924;51.398;7.088;2024-03-02T14:56:30;15.50;99.90
11736;DHT22;5924;51.398;7.088;2024-03-02T14:58:56;15.40;99.90
11736;DHT22;5924;51.398;7.088;2024-03-02T15:01:22;15.30;99.90
11736;DHT22;5924;51.398;7.088;2024-03-02T15:03:52;15.20;99.90
11736;DHT22;5924;51.398;7.088;2024-03-02T15:06:18;15.10;99.90
11736;DHT22;5924;51.398;7.088;2024-03-02T15:08:44;14.90;99.90
11736;DHT22;5924;51.398;7.088;2024-03-02T15:11:12;14.70;99.90
11736;DHT22;5924;51.398;7.088;2024-03-02T15:13:38;14.60;99.90
11736;DHT22;5924;51.398;7.088;2024-03-02T15:16:04;14.40;99.90
11736;DHT22;5924;51.398;7.088;2024-03-02T15:18:29;14.30;99.90
11736;DHT22;5924;51.398;7.088;2024-03-02T15:20:56;14.20;99.90
11736;DHT22;5924;51.398;7.088;2024-03-02T15:23:21;14.30;99.90
11736;DHT22;5924;51.398;7.088;2024-03-02T15:25:47;14.20;99.90
11736;DHT22;5924;51.398;7.088;2024-03-02T15:28:13;14.20;99.90
11736;DHT22;5924;51.398;7.088;2024-03-02T15:30:38;14.10;99.90
11736;DHT22;5924;51.398;7.088;2024-03-02T15:33:04;14.10;99.90
11736;DHT22;5924;51.398;7.088;2024-03-02T15:35:30;14.00;99.90
11736;DHT22;5924;51.398;7.088;2024-03-02T15:37:55;13.90;99.90
11736;DHT22;5924;51.398;7.088;2024-03-02T15:40:21;13.80;99.90
11736;DHT22;5924;51.398;7.088;2024-03-02T15:42:46;13.70;99.90
11736;DHT22;5924;51.398;7.088;2024-03-02T15:45:13;13.70;99.90
11736;DHT22;5924;51.398;7.088;2024-03-02T15:47:38;13.60;99.90
11736;DHT22;5924;51.398;7.088;2024-03-02T15:50:04;13.60;99.90
11736;DHT22;5924;51.398;7.088;2024-03-02T15:52:31;13.60;99.90
11736;DHT22;5924;51.398;7.088;2024-03-02T15:54:56;13.60;99.90
11736;DHT22;5924;51.398;7.088;2024-03-02T15:57:22;13.50;99.90
11736;DHT22;5924;51.398;7.088;2024-03-02T15:59:48;13.50;99.90
11736;DHT22;5924;51.398;7.088;2024-03-02T16:02:15;13.50;99.90
11736;DHT22;5924;51.398;7.088;2024-03-02T16:04:41;13.50;99.90
11736;DHT22;5924;51.398;7.088;2024-03-02T16:07:07;13.50;99.90